createdAt,value
2023-04-18T00:00:26.080Z,14.70
2023-04-18T00:02:55.264Z,14.70
2023-04-18T00:05:23.646Z,14.70
2023-04-18T00:07:52.791Z,14.70
2023-04-18T00:10:22.349Z,14.80
2023-04-18T00:12:50.316Z,14.70
2023-04-18T00:15:18.504Z,14.70
2023-04-18T00:17:48.450Z,14.80
2023-04-18T00:20:16.549Z,14.70
2023-04-18T00:22:46.530Z,14.80
2023-04-18T00:25:14.715Z,14.70
2023-04-18T00:27:44.112Z,14.70
2023-04-18T00:30:12.791Z,14.60
2023-04-18T00:32:40.887Z,14.70
2023-04-18T00:35:09.541Z,14.70
2023-04-18T00:37:37.540Z,14.70
2023-04-18T00:40:06.646Z,14.70
2023-04-18T00:42:34.654Z,14.80
2023-04-18T00:45:04.147Z,14.70
2023-04-18T00:47:32.219Z,14.70
2023-04-18T00:50:00.542Z,14.80
2023-04-18T00:52:28.564Z,14.80
2023-04-18T00:54:56.668Z,14.70
2023-04-18T00:57:24.686Z,14.60
2023-04-18T00:59:52.684Z,14.60
2023-04-18T01:02:22.320Z,14.70
2023-04-18T01:04:50.419Z,14.70
2023-04-18T01:07:18.409Z,14.70
2023-04-18T01:09:46.722Z,14.70
2023-04-18T01:12:14.695Z,14.70
2023-04-18T01:14:42.768Z,14.70
2023-04-18T01:17:11.055Z,14.70
2023-04-18T01:19:40.497Z,14.70
2023-04-18T01:22:08.569Z,14.60
2023-04-18T01:24:38.255Z,14.60
2023-04-18T01:27:06.276Z,14.60
2023-04-18T01:29:34.305Z,14.50
2023-04-18T01:32:02.954Z,14.50
2023-04-18T01:34:30.962Z,14.50
2023-04-18T01:36:59.220Z,14.50
2023-04-18T01:39:27.250Z,14.50
2023-04-18T01:41:56.613Z,14.60
2023-04-18T01:44:24.662Z,14.60
2023-04-18T01:46:52.695Z,14.60
2023-04-18T01:49:20.696Z,14.50
2023-04-18T01:51:48.779Z,14.60
2023-04-18T01:54:16.904Z,14.60
2023-04-18T01:56:44.961Z,14.60
2023-04-18T01:59:14.253Z,14.60
2023-04-18T02:01:42.217Z,14.50
2023-04-18T02:04:10.296Z,14.60
2023-04-18T02:06:38.309Z,14.60
2023-04-18T02:09:06.264Z,14.60
2023-04-18T02:11:34.216Z,14.60
2023-04-18T02:14:02.203Z,14.60
2023-04-18T02:16:31.567Z,14.70
2023-04-18T02:19:00.241Z,14.60
2023-04-18T02:21:30.281Z,14.60
2023-04-18T02:23:58.280Z,14.60
2023-04-18T02:26:26.385Z,14.60
2023-04-18T02:28:54.340Z,14.60
2023-04-18T02:31:22.321Z,14.60
2023-04-18T02:33:51.671Z,14.50
2023-04-18T02:36:19.613Z,14.60
2023-04-18T02:38:47.647Z,14.50
2023-04-18T02:41:19.505Z,14.60
2023-04-18T02:43:47.576Z,14.60
2023-04-18T02:46:15.583Z,14.70
2023-04-18T02:48:43.555Z,14.70
2023-04-18T02:51:12.877Z,14.70
2023-04-18T02:53:40.957Z,14.60
2023-04-18T02:56:09.072Z,14.60
2023-04-18T02:58:37.055Z,14.50
2023-04-18T03:01:05.095Z,14.60
2023-04-18T03:03:33.178Z,14.60
2023-04-18T03:06:01.285Z,14.60
2023-04-18T03:08:30.654Z,14.60
2023-04-18T03:10:58.682Z,14.60
2023-04-18T03:13:26.669Z,14.60
2023-04-18T03:15:54.788Z,14.70
2023-04-18T03:18:22.760Z,14.70
2023-04-18T03:20:50.769Z,14.60
2023-04-18T03:23:18.785Z,14.60
2023-04-18T03:25:48.135Z,14.50
2023-04-18T03:28:16.117Z,14.50
2023-04-18T03:30:44.073Z,14.50
2023-04-18T03:33:12.202Z,14.50
2023-04-18T03:35:40.190Z,14.40
2023-04-18T03:38:08.187Z,14.50
2023-04-18T03:40:36.203Z,14.50
2023-04-18T03:43:05.570Z,14.50
2023-04-18T03:45:33.572Z,14.50
2023-04-18T03:48:01.676Z,14.50
2023-04-18T03:50:29.672Z,14.60
2023-04-18T03:52:57.626Z,14.60
2023-04-18T03:55:26.468Z,14.60
2023-04-18T03:57:54.454Z,14.60
2023-04-18T04:00:23.819Z,14.50
2023-04-18T04:02:52.083Z,14.50
2023-04-18T04:05:20.292Z,14.50
2023-04-18T04:07:48.263Z,14.60
2023-04-18T04:10:16.237Z,14.60
2023-04-18T04:12:44.208Z,14.60
2023-04-18T04:15:12.875Z,14.60
2023-04-18T04:17:42.215Z,14.70
2023-04-18T04:20:11.177Z,14.60
2023-04-18T04:22:39.142Z,14.70
2023-04-18T04:25:07.660Z,14.60
2023-04-18T04:27:36.873Z,14.60
2023-04-18T04:30:05.644Z,14.50
2023-04-18T04:32:34.054Z,14.50
2023-04-18T04:35:03.435Z,14.50
2023-04-18T04:37:33.516Z,14.60
2023-04-18T04:40:02.798Z,14.60
2023-04-18T04:42:30.800Z,14.60
2023-04-18T04:44:58.816Z,14.60
2023-04-18T04:47:27.116Z,14.70
2023-04-18T04:49:55.215Z,14.70
2023-04-18T04:52:24.612Z,14.60
2023-04-18T04:54:52.838Z,14.60
2023-04-18T04:57:20.952Z,14.60
2023-04-18T04:59:48.979Z,14.50
2023-04-18T05:02:17.065Z,14.50
2023-04-18T05:04:45.085Z,14.50
2023-04-18T05:07:13.054Z,14.60
2023-04-18T05:09:42.389Z,14.60
2023-04-18T05:12:10.490Z,14.60
2023-04-18T05:14:38.438Z,14.60
2023-04-18T05:17:07.613Z,14.70
2023-04-18T05:19:36.216Z,14.60
2023-04-18T05:22:04.179Z,14.60
2023-04-18T05:24:32.781Z,14.60
2023-04-18T05:27:02.389Z,14.50
2023-04-18T05:29:30.367Z,14.50
2023-04-18T05:31:58.327Z,14.50
2023-04-18T05:34:26.308Z,14.40
2023-04-18T05:36:54.322Z,14.40
2023-04-18T05:39:22.333Z,14.40
2023-04-18T05:41:50.536Z,14.50
2023-04-18T05:44:20.042Z,14.50
2023-04-18T05:46:51.335Z,14.50
2023-04-18T05:49:19.423Z,14.60
2023-04-18T05:51:49.702Z,14.60
2023-04-18T05:54:17.751Z,14.60
2023-04-18T05:56:45.824Z,14.60
2023-04-18T05:59:14.354Z,14.60
2023-04-18T06:01:44.264Z,14.60
2023-04-18T06:04:12.384Z,14.60
2023-04-18T06:06:40.570Z,14.70
2023-04-18T06:09:08.809Z,14.80
2023-04-18T06:11:36.864Z,14.80
2023-04-18T06:14:04.855Z,14.90
2023-04-18T06:16:32.870Z,14.90
2023-04-18T06:19:02.513Z,14.90
2023-04-18T06:21:30.504Z,14.90
2023-04-18T06:23:58.501Z,14.90
2023-04-18T06:26:26.508Z,14.90
2023-04-18T06:28:54.502Z,15.00
2023-04-18T06:31:22.524Z,15.00
2023-04-18T06:33:50.547Z,15.00
2023-04-18T06:36:19.913Z,15.00
2023-04-18T06:38:47.898Z,15.00
2023-04-18T06:41:16.155Z,15.00
2023-04-18T06:43:55.724Z,15.00
2023-04-18T06:46:30.025Z,14.90
2023-04-18T06:48:58.158Z,14.90
2023-04-18T06:51:28.008Z,14.90
2023-04-18T06:53:55.975Z,14.90
2023-04-18T06:56:23.971Z,15.00
2023-04-18T06:58:52.879Z,15.00
2023-04-18T07:01:21.054Z,14.90
2023-04-18T07:03:49.193Z,15.00
2023-04-18T07:06:17.260Z,15.00
2023-04-18T07:08:46.592Z,14.90
2023-04-18T07:11:15.591Z,15.00
2023-04-18T07:13:43.584Z,15.00
2023-04-18T07:16:11.550Z,14.90
2023-04-18T07:18:39.489Z,14.90
2023-04-18T07:21:08.079Z,14.90
2023-04-18T07:23:36.147Z,14.90
2023-04-18T07:26:05.940Z,15.00
2023-04-18T07:28:34.041Z,15.00
2023-04-18T07:31:03.127Z,14.90
2023-04-18T07:33:33.739Z,14.90
2023-04-18T07:36:02.089Z,14.80
2023-04-18T07:38:30.047Z,14.90
2023-04-18T07:40:58.050Z,15.00
2023-04-18T07:43:27.456Z,15.10
2023-04-18T07:45:55.453Z,15.10
2023-04-18T07:48:23.522Z,15.10
2023-04-18T07:50:51.557Z,15.20
2023-04-18T07:53:19.515Z,15.30
2023-04-18T07:55:47.640Z,15.30
2023-04-18T07:58:15.683Z,15.30
2023-04-18T08:00:45.168Z,15.40
2023-04-18T08:03:13.483Z,15.50
2023-04-18T08:05:41.776Z,15.40
2023-04-18T08:08:10.580Z,15.40
2023-04-18T08:10:38.603Z,15.40
2023-04-18T08:13:08.115Z,15.40
2023-04-18T08:15:36.295Z,15.50
2023-04-18T08:18:05.809Z,15.50
2023-04-18T08:20:34.376Z,15.60
2023-04-18T08:23:08.534Z,15.60
2023-04-18T08:25:38.429Z,15.60
2023-04-18T08:28:06.640Z,15.70
2023-04-18T08:30:34.642Z,15.70
2023-04-18T08:33:02.810Z,15.60
2023-04-18T08:35:32.315Z,15.50
2023-04-18T08:38:00.738Z,15.50
2023-04-18T08:40:30.240Z,15.40
2023-04-18T08:42:58.448Z,15.50
2023-04-18T08:45:26.518Z,15.60
2023-04-18T08:47:56.090Z,15.60
2023-04-18T08:50:24.250Z,15.70
2023-04-18T08:52:53.581Z,15.70
2023-04-18T08:55:22.444Z,15.80
2023-04-18T08:57:54.194Z,15.80
2023-04-18T09:00:22.579Z,15.80
2023-04-18T09:02:55.100Z,15.80
2023-04-18T09:05:23.856Z,15.80
2023-04-18T09:07:54.908Z,15.60
2023-04-18T09:10:27.531Z,15.60
2023-04-18T09:12:56.877Z,15.60
2023-04-18T09:15:27.114Z,15.70
2023-04-18T09:17:56.597Z,15.70
2023-04-18T09:20:35.543Z,15.70
2023-04-18T09:23:05.329Z,15.70
2023-04-18T09:25:36.006Z,15.80
2023-04-18T09:28:04.695Z,15.80
2023-04-18T09:30:38.000Z,15.70
2023-04-18T09:33:07.638Z,15.70
2023-04-18T09:35:35.901Z,15.60
2023-04-18T09:38:05.618Z,15.60
2023-04-18T09:40:33.940Z,15.50
2023-04-18T09:43:01.882Z,15.50
2023-04-18T09:45:29.844Z,15.40
2023-04-18T09:47:58.527Z,15.40
2023-04-18T09:50:26.712Z,15.50
2023-04-18T09:52:54.816Z,15.50
2023-04-18T09:55:24.201Z,15.50
2023-04-18T09:57:52.216Z,15.50
2023-04-18T10:00:24.273Z,15.70
2023-04-18T10:02:54.163Z,15.70
2023-04-18T10:05:24.545Z,15.70
2023-04-18T10:07:52.533Z,15.60
2023-04-18T10:10:20.635Z,15.60
2023-04-18T10:12:50.817Z,15.60
2023-04-18T10:15:19.093Z,15.60
2023-04-18T10:18:02.737Z,15.60
2023-04-18T10:20:33.574Z,15.60
2023-04-18T10:23:01.620Z,15.60
2023-04-18T10:25:48.743Z,15.60
2023-04-18T10:28:18.396Z,15.70
2023-04-18T10:30:51.048Z,15.80
2023-04-18T10:33:30.954Z,15.80
2023-04-18T10:36:16.909Z,15.70
2023-04-18T10:38:49.420Z,15.70
2023-04-18T10:41:24.369Z,15.60
2023-04-18T10:44:23.351Z,15.60
2023-04-18T10:47:20.979Z,15.70
2023-04-18T10:50:06.268Z,15.70
2023-04-18T10:52:34.627Z,15.70
2023-04-18T10:55:14.432Z,15.80
2023-04-18T10:57:43.473Z,15.80
2023-04-18T11:00:14.673Z,15.90
2023-04-18T11:02:50.088Z,15.90
2023-04-18T11:05:22.609Z,15.80
2023-04-18T11:07:50.593Z,15.70
2023-04-18T11:10:19.903Z,15.80
2023-04-18T11:12:48.116Z,15.80
2023-04-18T11:15:21.373Z,15.80
2023-04-18T11:17:56.852Z,15.80
2023-04-18T11:20:24.928Z,15.80
2023-04-18T11:22:53.579Z,15.80
2023-04-18T11:25:24.506Z,15.90
2023-04-18T11:27:52.585Z,15.90
2023-04-18T11:30:21.909Z,15.90
2023-04-18T11:32:49.968Z,15.90
2023-04-18T11:35:18.001Z,15.90
2023-04-18T11:37:46.472Z,15.90
2023-04-18T11:40:14.707Z,15.80
2023-04-18T11:42:42.731Z,15.80
2023-04-18T11:45:12.644Z,15.80
2023-04-18T11:47:43.179Z,15.80
2023-04-18T11:50:12.030Z,15.80
2023-04-18T11:52:40.903Z,15.80
2023-04-18T11:55:13.634Z,15.90
2023-04-18T11:57:41.912Z,15.90
2023-04-18T12:00:12.359Z,16.00
2023-04-18T12:02:43.219Z,16.00
2023-04-18T12:05:11.877Z,16.00
2023-04-18T12:07:40.956Z,16.00
2023-04-18T12:10:09.910Z,15.90
2023-04-18T12:12:37.872Z,15.90
2023-04-18T12:15:08.442Z,15.90
2023-04-18T12:17:37.540Z,16.00
2023-04-18T12:20:09.738Z,16.00
2023-04-18T12:22:43.074Z,16.00
2023-04-18T12:25:20.123Z,15.90
2023-04-18T12:27:52.070Z,16.00
2023-04-18T12:30:22.001Z,16.10
2023-04-18T12:32:51.181Z,16.10
2023-04-18T12:35:20.816Z,16.10
2023-04-18T12:37:48.932Z,16.10
2023-04-18T12:40:18.874Z,15.90
2023-04-18T12:42:47.184Z,16.00
2023-04-18T12:45:15.592Z,16.00
2023-04-18T12:47:45.199Z,16.10
2023-04-18T12:50:15.572Z,16.10
2023-04-18T12:52:44.941Z,16.10
2023-04-18T12:55:13.008Z,16.00
2023-04-18T12:57:41.171Z,16.10
2023-04-18T13:00:11.275Z,16.20
2023-04-18T13:02:40.152Z,16.20
2023-04-18T13:05:08.789Z,16.10
2023-04-18T13:07:38.089Z,16.10
2023-04-18T13:10:08.542Z,16.10
2023-04-18T13:12:36.552Z,16.10
2023-04-18T13:15:05.245Z,16.10
2023-04-18T13:17:33.691Z,16.10
2023-04-18T13:20:01.742Z,16.10
2023-04-18T13:22:30.956Z,16.10
2023-04-18T13:24:58.935Z,16.10
2023-04-18T13:27:28.741Z,16.20
2023-04-18T13:29:57.329Z,16.20
2023-04-18T13:32:25.831Z,16.20
2023-04-18T13:34:56.063Z,16.20
2023-04-18T13:37:24.115Z,16.10
2023-04-18T13:39:52.514Z,16.10
2023-04-18T13:42:20.658Z,16.00
2023-04-18T13:44:50.156Z,16.00
2023-04-18T13:47:18.122Z,16.00
2023-04-18T13:49:46.101Z,16.00
2023-04-18T13:52:14.095Z,16.00
2023-04-18T13:54:42.342Z,16.00
2023-04-18T13:57:12.351Z,16.00
2023-04-18T13:59:40.701Z,16.00
2023-04-18T14:02:10.443Z,16.10
2023-04-18T14:04:39.002Z,16.10
2023-04-18T14:07:08.056Z,16.20
2023-04-18T14:09:36.092Z,16.10
2023-04-18T14:12:04.181Z,16.10
2023-04-18T14:14:32.203Z,16.00
2023-04-18T14:17:00.165Z,16.00
2023-04-18T14:19:29.974Z,16.00
2023-04-18T14:21:57.957Z,16.00
2023-04-18T14:24:26.216Z,15.90
2023-04-18T14:26:54.812Z,16.00
2023-04-18T14:29:22.976Z,16.00
2023-04-18T14:31:51.712Z,16.00
2023-04-18T14:34:19.705Z,16.10
2023-04-18T14:36:49.230Z,16.00
2023-04-18T14:39:17.237Z,16.00
2023-04-18T14:41:45.912Z,16.00
2023-04-18T14:44:14.384Z,16.00
2023-04-18T14:46:43.338Z,16.00
2023-04-18T14:49:11.491Z,15.90
2023-04-18T14:51:39.819Z,15.90
2023-04-18T14:54:09.194Z,16.00
2023-04-18T14:56:37.198Z,16.00
2023-04-18T14:59:05.191Z,16.00
2023-04-18T15:01:33.333Z,16.00
2023-04-18T15:04:03.595Z,16.10
2023-04-18T15:06:32.688Z,16.00
2023-04-18T15:09:00.978Z,16.00
2023-04-18T15:11:30.608Z,15.90
2023-04-18T15:13:58.600Z,15.90
2023-04-18T16:16:24.884Z,15.70
2023-04-18T16:18:52.928Z,15.70
2023-04-18T16:21:20.974Z,15.70
2023-04-18T16:23:49.234Z,15.70
2023-04-18T16:26:30.986Z,15.70
2023-04-18T16:28:59.026Z,15.70
2023-04-18T16:31:28.533Z,15.80
2023-04-18T16:33:56.678Z,15.80
2023-04-18T16:37:16.599Z,15.70
2023-04-18T16:39:44.867Z,15.80
2023-04-18T16:42:15.331Z,15.80
2023-04-18T16:44:44.812Z,15.70
2023-04-18T16:47:14.235Z,15.70
2023-04-18T16:49:43.628Z,15.80
2023-04-18T16:52:11.764Z,15.70
2023-04-18T16:54:39.769Z,15.70
2023-04-18T16:57:07.741Z,15.70
2023-04-18T16:59:35.869Z,15.80
2023-04-18T17:02:04.534Z,15.80
2023-04-18T17:04:34.254Z,15.80
2023-04-18T17:07:02.432Z,15.80
2023-04-18T17:09:31.269Z,15.80
2023-04-18T17:11:59.566Z,15.70
2023-04-18T17:14:27.594Z,15.70
2023-04-18T17:16:55.647Z,15.70
2023-04-18T17:19:24.050Z,15.70
2023-04-18T17:21:53.428Z,15.70
2023-04-18T17:24:22.569Z,15.70
2023-04-18T17:26:50.813Z,15.70
2023-04-18T17:29:19.070Z,15.70
2023-04-18T17:31:47.177Z,15.80
2023-04-18T17:34:15.212Z,15.80
2023-04-18T17:36:43.301Z,15.70
2023-04-18T17:39:13.166Z,15.70
2023-04-18T17:41:41.500Z,15.60
2023-04-18T17:44:10.424Z,15.60
2023-04-18T17:46:39.477Z,15.60
2023-04-18T17:49:07.485Z,15.60
2023-04-18T17:51:35.800Z,15.50
2023-04-18T17:54:05.239Z,15.60
2023-04-18T17:56:34.867Z,15.50
2023-04-18T17:59:03.148Z,15.60
2023-04-18T18:01:31.737Z,15.60
2023-04-18T18:04:00.311Z,15.60
2023-04-18T18:06:28.780Z,15.60
2023-04-18T18:08:56.822Z,15.70
2023-04-18T18:11:27.246Z,15.60
2023-04-18T18:13:57.527Z,15.60
2023-04-18T18:16:25.932Z,15.50
2023-04-18T18:18:54.129Z,15.50
2023-04-18T18:21:22.425Z,15.50
2023-04-18T18:23:50.816Z,15.60
2023-04-18T18:26:18.853Z,15.40
2023-04-18T18:28:46.860Z,15.50
2023-04-18T18:31:16.873Z,15.50
2023-04-18T18:33:45.191Z,15.60
2023-04-18T18:36:13.471Z,15.60
2023-04-18T18:38:41.678Z,15.60
2023-04-18T18:41:09.954Z,15.60
2023-04-18T18:43:37.998Z,15.50
2023-04-18T18:46:06.017Z,15.50
2023-04-18T18:48:38.205Z,15.50
2023-04-18T18:51:06.287Z,15.50
2023-04-18T18:53:34.505Z,15.50
2023-04-18T18:56:02.576Z,15.50
2023-04-18T18:58:30.637Z,15.50
2023-04-18T19:01:02.265Z,15.50
2023-04-18T19:03:30.525Z,15.50
2023-04-18T19:06:04.171Z,15.60
2023-04-18T19:08:34.394Z,15.50
2023-04-18T19:11:02.414Z,15.60
2023-04-18T19:13:30.443Z,15.50
2023-04-18T19:15:58.759Z,15.50
2023-04-18T19:18:26.866Z,15.50
2023-04-18T19:20:54.950Z,15.50
2023-04-18T19:23:25.283Z,15.50
2023-04-18T19:25:53.381Z,15.50
2023-04-18T19:28:22.636Z,15.40
2023-04-18T19:30:50.897Z,15.50
2023-04-18T19:33:19.756Z,15.50
2023-04-18T19:35:47.759Z,15.40
2023-04-18T19:38:15.775Z,15.40
2023-04-18T19:40:45.320Z,15.40
2023-04-18T19:43:13.332Z,15.30
2023-04-18T19:45:41.514Z,15.30
2023-04-18T19:48:09.576Z,15.40
2023-04-18T19:50:40.381Z,15.40
2023-04-18T19:53:08.394Z,15.40
2023-04-18T19:55:36.384Z,15.40
2023-04-18T19:58:06.276Z,15.40
2023-04-18T20:00:35.280Z,15.40
2023-04-18T20:03:03.656Z,15.40
2023-04-18T20:05:31.966Z,15.40
2023-04-18T20:08:00.115Z,15.40
2023-04-18T20:10:28.342Z,15.40
2023-04-18T20:12:56.412Z,15.40
2023-04-18T20:15:25.830Z,15.40
2023-04-18T20:17:53.954Z,15.40
2023-04-18T20:20:22.028Z,15.40
2023-04-18T20:22:50.043Z,15.40
2023-04-18T20:25:18.134Z,15.40
2023-04-18T20:27:46.128Z,15.40
2023-04-18T20:30:14.630Z,15.40
2023-04-18T20:32:43.992Z,15.40
2023-04-18T20:35:12.525Z,15.40
2023-04-18T20:37:41.409Z,15.40
2023-04-18T20:40:10.866Z,15.40
2023-04-18T20:45:11.310Z,15.40
2023-04-18T20:47:40.237Z,15.50
2023-04-18T20:50:10.521Z,15.40
2023-04-18T20:52:38.532Z,15.40
2023-04-18T20:55:07.379Z,15.40
2023-04-18T20:57:35.475Z,15.40
2023-04-18T21:00:06.124Z,15.40
2023-04-18T21:02:34.205Z,15.40
2023-04-18T21:05:02.380Z,15.40
2023-04-18T21:07:32.209Z,15.40
2023-04-18T21:10:00.191Z,15.40
2023-04-18T21:12:28.185Z,15.40
2023-04-18T21:14:56.349Z,15.40
2023-04-18T21:17:25.593Z,15.40
2023-04-18T21:19:53.576Z,15.30
2023-04-18T21:22:21.541Z,15.30
2023-04-18T21:24:50.867Z,15.40
2023-04-18T21:27:18.900Z,15.40
2023-04-18T21:29:46.945Z,15.30
2023-04-18T21:32:14.926Z,15.30
2023-04-18T21:34:42.906Z,15.40
2023-04-18T21:37:10.903Z,15.30
2023-04-18T21:39:39.225Z,15.20
2023-04-18T21:42:08.602Z,15.20
2023-04-18T21:44:36.605Z,15.10
2023-04-18T21:47:04.842Z,15.20
2023-04-18T21:49:32.838Z,15.20
2023-04-18T21:52:01.289Z,15.20
2023-04-18T21:54:29.273Z,15.30
2023-04-18T21:56:57.236Z,15.20
2023-04-18T21:59:26.831Z,15.20
2023-04-18T22:01:54.846Z,15.20
2023-04-18T22:04:26.138Z,15.20
2023-04-18T22:06:55.128Z,15.20
2023-04-18T22:09:23.510Z,15.30
2023-04-18T22:11:51.844Z,15.20
2023-04-18T22:14:20.123Z,15.20
2023-04-18T22:16:50.100Z,15.30
2023-04-18T22:19:19.264Z,15.20
2023-04-18T22:21:47.310Z,15.30
2023-04-18T22:24:15.490Z,15.30
2023-04-18T22:26:43.728Z,15.30
2023-04-18T22:29:11.714Z,15.30
2023-04-18T22:31:39.710Z,15.30
2023-04-18T22:34:09.123Z,15.30
2023-04-18T22:36:37.635Z,15.30
2023-04-18T22:39:06.242Z,15.20
2023-04-18T22:41:34.235Z,15.20
2023-04-18T22:44:02.217Z,15.20
2023-04-18T22:46:30.302Z,15.20
2023-04-18T22:48:58.385Z,15.20
2023-04-18T22:51:28.679Z,15.20
2023-04-18T22:53:57.193Z,15.20
2023-04-18T22:56:25.191Z,15.20
2023-04-18T22:58:53.170Z,15.20
2023-04-18T23:01:21.204Z,15.30
2023-04-18T23:03:49.375Z,15.20
2023-04-18T23:06:17.473Z,15.20
2023-04-18T23:08:46.810Z,15.10
2023-04-18T23:11:14.808Z,15.20
2023-04-18T23:13:42.823Z,15.20
2023-04-18T23:16:10.807Z,15.20
2023-04-18T23:18:38.865Z,15.20
2023-04-18T23:21:07.105Z,15.20
2023-04-18T23:23:35.154Z,15.20
2023-04-18T23:26:04.679Z,15.10
2023-04-18T23:28:32.722Z,15.10
2023-04-18T23:31:00.853Z,15.10
2023-04-18T23:33:28.906Z,15.10
2023-04-18T23:35:56.894Z,15.00
2023-04-18T23:38:25.411Z,15.00
2023-04-18T23:40:53.414Z,14.90
2023-04-18T23:43:22.847Z,14.90
2023-04-18T23:45:50.822Z,14.90
2023-04-18T23:48:18.827Z,14.90
2023-04-18T23:50:47.101Z,14.90
2023-04-18T23:53:15.141Z,14.90
2023-04-18T23:55:43.129Z,14.90
2023-04-18T23:58:11.138Z,14.90
